sensor_id;sensor_type;location;lat;lon;timestamp;temperature;humidity
59301;DHT22;45073;52.740;6.784;2023-02-28T00:00:30;5.10;99.10
59301;DHT22;45073;52.740;6.784;2023-02-28T00:02:56;5.10;98.80
59301;DHT22;45073;52.740;6.784;2023-02-28T00:05:23;5.10;99.60
59301;DHT22;45073;52.740;6.784;2023-02-28T00:07:50;5.10;99.90
59301;DHT22;45073;52.740;6.784;2023-02-28T00:10:26;5.10;99.90
59301;DHT22;45073;52.740;6.784;2023-02-28T00:12:55;5.10;99.90
59301;DHT22;45073;52.740;6.784;2023-02-28T00:15:23;5.10;99.90
59301;DHT22;45073;52.740;6.784;2023-02-28T00:17:49;5.10;99.90
59301;DHT22;45073;52.740;6.784;2023-02-28T00:20:15;5.10;99.90
59301;DHT22;45073;52.740;6.784;2023-02-28T00:22:43;5.10;99.90
59301;DHT22;45073;52.740;6.784;2023-02-28T00:25:12;5.10;99.90
59301;DHT22;45073;52.740;6.784;2023-02-28T00:27:39;5.10;99.90
59301;DHT22;45073;52.740;6.784;2023-02-28T00:30:07;5.10;99.90
59301;DHT22;45073;52.740;6.784;2023-02-28T00:32:34;5.10;99.90
59301;DHT22;45073;52.740;6.784;2023-02-28T00:35:00;5.10;99.90
59301;DHT22;45073;52.740;6.784;2023-02-28T00:37:26;5.10;99.90
59301;DHT22;45073;52.740;6.784;2023-02-28T00:39:51;5.10;99.90
59301;DHT22;45073;52.740;6.784;2023-02-28T00:42:17;5.10;99.90
59301;DHT22;45073;52.740;6.784;2023-02-28T00:44:43;5.10;99.90
59301;DHT22;45073;52.740;6.784;2023-02-28T00:47:08;5.10;99.90
59301;DHT22;45073;52.740;6.784;2023-02-28T00:49:34;5.10;99.90
59301;DHT22;45073;52.740;6.784;2023-02-28T00:51:59;5.20;99.90
59301;DHT22;45073;52.740;6.784;2023-02-28T00:54:25;5.10;99.90
59301;DHT22;45073;52.740;6.784;2023-02-28T00:56:51;5.10;99.90
59301;DHT22;45073;52.740;6.784;2023-02-28T00:59:17;5.00;99.90
59301;DHT22;45073;52.740;6.784;2023-02-28T01:01:44;5.00;99.90
59301;DHT22;45073;52.740;6.784;2023-02-28T01:04:10;5.00;99.90
59301;DHT22;45073;52.740;6.784;2023-02-28T01:06:36;5.00;99.90
59301;DHT22;45073;52.740;6.784;2023-02-28T01:09:03;5.00;99.90
59301;DHT22;45073;52.740;6.784;2023-02-28T01:11:30;5.00;99.90
59301;DHT22;45073;52.740;6.784;2023-02-28T01:13:55;5.00;99.90
59301;DHT22;45073;52.740;6.784;2023-02-28T01:16:21;5.00;99.90
59301;DHT22;45073;52.740;6.784;2023-02-28T01:18:47;5.00;99.90
59301;DHT22;45073;52.740;6.784;2023-02-28T01:21:16;5.00;99.90
59301;DHT22;45073;52.740;6.784;2023-02-28T01:23:43;5.10;99.90
59301;DHT22;45073;52.740;6.784;2023-02-28T01:26:13;5.00;99.90
59301;DHT22;45073;52.740;6.784;2023-02-28T01:28:40;5.10;99.90
59301;DHT22;45073;52.740;6.784;2023-02-28T01:31:06;5.10;99.90
59301;DHT22;45073;52.740;6.784;2023-02-28T01:33:32;5.10;99.90
59301;DHT22;45073;52.740;6.784;2023-02-28T01:36:02;5.10;99.90
59301;DHT22;45073;52.740;6.784;2023-02-28T01:38:29;5.10;99.90
59301;DHT22;45073;52.740;6.784;2023-02-28T01:40:54;5.10;99.90
59301;DHT22;45073;52.740;6.784;2023-02-28T01:43:29;5.10;99.90
59301;DHT22;45073;52.740;6.784;2023-02-28T01:45:57;5.10;99.90
59301;DHT22;45073;52.740;6.784;2023-02-28T01:48:35;5.10;99.90
59301;DHT22;45073;52.740;6.784;2023-02-28T01:51:05;5.10;99.90
59301;DHT22;45073;52.740;6.784;2023-02-28T01:53:39;5.10;99.90
59301;DHT22;45073;52.740;6.784;2023-02-28T01:56:09;5.10;99.90
59301;DHT22;45073;52.740;6.784;2023-02-28T01:58:36;5.10;99.90
59301;DHT22;45073;52.740;6.784;2023-02-28T02:01:02;5.10;99.90
59301;DHT22;45073;52.740;6.784;2023-02-28T02:03:28;5.10;99.90
59301;DHT22;45073;52.740;6.784;2023-02-28T02:05:54;5.10;99.90
59301;DHT22;45073;52.740;6.784;2023-02-28T02:08:25;5.10;99.90
59301;DHT22;45073;52.740;6.784;2023-02-28T02:11:00;5.10;99.90
59301;DHT22;45073;52.740;6.784;2023-02-28T02:22:18;5.10;99.90
59301;DHT22;45073;52.740;6.784;2023-02-28T02:36:04;5.10;99.90
59301;DHT22;45073;52.740;6.784;2023-02-28T02:39:00;5.10;99.90
59301;DHT22;45073;52.740;6.784;2023-02-28T02:41:40;5.10;99.90
59301;DHT22;45073;52.740;6.784;2023-02-28T02:44:24;5.00;99.90
59301;DHT22;45073;52.740;6.784;2023-02-28T02:46:55;5.10;99.90
59301;DHT22;45073;52.740;6.784;2023-02-28T02:49:27;5.00;99.90
59301;DHT22;45073;52.740;6.784;2023-02-28T02:51:56;5.00;99.90
59301;DHT22;45073;52.740;6.784;2023-02-28T02:54:26;5.10;99.90
59301;DHT22;45073;52.740;6.784;2023-02-28T02:56:57;5.10;99.90
59301;DHT22;45073;52.740;6.784;2023-02-28T02:59:25;5.00;99.90
59301;DHT22;45073;52.740;6.784;2023-02-28T03:01:56;5.00;99.90
59301;DHT22;45073;52.740;6.784;2023-02-28T03:04:24;5.00;99.90
59301;DHT22;45073;52.740;6.784;2023-02-28T03:06:51;5.00;99.90
59301;DHT22;45073;52.740;6.784;2023-02-28T03:09:21;5.00;99.90
59301;DHT22;45073;52.740;6.784;2023-02-28T03:11:47;5.00;99.90
59301;DHT22;45073;52.740;6.784;2023-02-28T03:17:18;5.00;99.90
59301;DHT22;45073;52.740;6.784;2023-02-28T03:22:33;4.90;99.90
59301;DHT22;45073;52.740;6.784;2023-02-28T03:25:07;4.90;99.90
59301;DHT22;45073;52.740;6.784;2023-02-28T03:27:42;4.90;99.90
59301;DHT22;45073;52.740;6.784;2023-02-28T03:30:22;4.90;99.90
59301;DHT22;45073;52.740;6.784;2023-02-28T03:35:32;4.90;99.90
59301;DHT22;45073;52.740;6.784;2023-02-28T03:38:07;4.90;99.90
59301;DHT22;45073;52.740;6.784;2023-02-28T03:40:37;4.90;99.90
59301;DHT22;45073;52.740;6.784;2023-02-28T03:43:09;4.90;99.90
59301;DHT22;45073;52.740;6.784;2023-02-28T03:45:37;4.90;99.90
59301;DHT22;45073;52.740;6.784;2023-02-28T03:48:31;4.90;99.90
59301;DHT22;45073;52.740;6.784;2023-02-28T03:50:59;4.90;99.90
59301;DHT22;45073;52.740;6.784;2023-02-28T03:53:32;4.80;99.90
59301;DHT22;45073;52.740;6.784;2023-02-28T04:01:40;4.80;99.90
59301;DHT22;45073;52.740;6.784;2023-02-28T04:04:10;4.80;99.90
59301;DHT22;45073;52.740;6.784;2023-02-28T04:06:37;4.80;99.90
59301;DHT22;45073;52.740;6.784;2023-02-28T04:09:04;4.80;99.90
59301;DHT22;45073;52.740;6.784;2023-02-28T04:14:02;4.80;99.90
59301;DHT22;45073;52.740;6.784;2023-02-28T04:16:28;4.80;99.90
59301;DHT22;45073;52.740;6.784;2023-02-28T04:18:53;4.80;99.90
59301;DHT22;45073;52.740;6.784;2023-02-28T04:21:19;4.80;99.90
59301;DHT22;45073;52.740;6.784;2023-02-28T04:23:47;4.80;99.90
59301;DHT22;45073;52.740;6.784;2023-02-28T04:26:13;4.70;99.90
59301;DHT22;45073;52.740;6.784;2023-02-28T04:28:39;4.80;99.90
59301;DHT22;45073;52.740;6.784;2023-02-28T04:31:05;4.80;99.90
59301;DHT22;45073;52.740;6.784;2023-02-28T04:33:32;4.70;99.90
59301;DHT22;45073;52.740;6.784;2023-02-28T04:36:03;4.70;99.90
59301;DHT22;45073;52.740;6.784;2023-02-28T04:38:32;4.70;99.90
59301;DHT22;45073;52.740;6.784;2023-02-28T04:40:58;4.70;99.90
59301;DHT22;45073;52.740;6.784;2023-02-28T04:43:26;4.70;99.90
59301;DHT22;45073;52.740;6.784;2023-02-28T04:45:51;4.70;99.90
59301;DHT22;45073;52.740;6.784;2023-02-28T04:48:17;4.70;99.90
59301;DHT22;45073;52.740;6.784;2023-02-28T04:50:42;4.70;99.90
59301;DHT22;45073;52.740;6.784;2023-02-28T04:53:08;4.70;99.90
59301;DHT22;45073;52.740;6.784;2023-02-28T04:55:34;4.60;99.90
59301;DHT22;45073;52.740;6.784;2023-02-28T04:58:00;4.60;99.90
59301;DHT22;45073;52.740;6.784;2023-02-28T05:00:26;4.60;99.90
59301;DHT22;45073;52.740;6.784;2023-02-28T05:02:51;4.60;99.90
59301;DHT22;45073;52.740;6.784;2023-02-28T05:05:17;4.60;99.90
59301;DHT22;45073;52.740;6.784;2023-02-28T05:07:44;4.60;99.90
59301;DHT22;45073;52.740;6.784;2023-02-28T05:10:10;4.50;99.90
59301;DHT22;45073;52.740;6.784;2023-02-28T05:12:36;4.50;99.90
59301;DHT22;45073;52.740;6.784;2023-02-28T05:15:02;4.50;99.90
59301;DHT22;45073;52.740;6.784;2023-02-28T05:17:28;4.40;99.90
59301;DHT22;45073;52.740;6.784;2023-02-28T05:19:54;4.40;99.90
59301;DHT22;45073;52.740;6.784;2023-02-28T05:22:19;4.40;99.90
59301;DHT22;45073;52.740;6.784;2023-02-28T05:24:45;4.40;99.90
59301;DHT22;45073;52.740;6.784;2023-02-28T05:27:10;4.40;99.90
59301;DHT22;45073;52.740;6.784;2023-02-28T05:29:36;4.40;99.90
59301;DHT22;45073;52.740;6.784;2023-02-28T05:32:09;4.40;99.90
59301;DHT22;45073;52.740;6.784;2023-02-28T05:34:37;4.40;99.90
59301;DHT22;45073;52.740;6.784;2023-02-28T05:37:03;4.40;99.90
59301;DHT22;45073;52.740;6.784;2023-02-28T05:39:29;4.40;99.90
59301;DHT22;45073;52.740;6.784;2023-02-28T05:41:54;4.40;99.90
59301;DHT22;45073;52.740;6.784;2023-02-28T05:44:20;4.30;99.90
59301;DHT22;45073;52.740;6.784;2023-02-28T05:46:46;4.30;99.90
59301;DHT22;45073;52.740;6.784;2023-02-28T05:49:11;4.30;99.90
59301;DHT22;45073;52.740;6.784;2023-02-28T05:51:37;4.30;99.90
59301;DHT22;45073;52.740;6.784;2023-02-28T05:54:05;4.30;99.90
59301;DHT22;45073;52.740;6.784;2023-02-28T05:56:31;4.30;99.90
59301;DHT22;45073;52.740;6.784;2023-02-28T05:58:57;4.30;99.90
59301;DHT22;45073;52.740;6.784;2023-02-28T06:01:38;4.30;99.90
59301;DHT22;45073;52.740;6.784;2023-02-28T06:04:07;4.30;99.90
59301;DHT22;45073;52.740;6.784;2023-02-28T06:06:33;4.30;99.90
59301;DHT22;45073;52.740;6.784;2023-02-28T06:09:03;4.30;99.90
59301;DHT22;45073;52.740;6.784;2023-02-28T06:11:30;4.30;99.90
59301;DHT22;45073;52.740;6.784;2023-02-28T06:13:57;4.40;99.90
59301;DHT22;45073;52.740;6.784;2023-02-28T06:16:26;4.30;99.90
59301;DHT22;45073;52.740;6.784;2023-02-28T06:18:52;4.40;99.90
59301;DHT22;45073;52.740;6.784;2023-02-28T06:21:18;4.40;99.90
59301;DHT22;45073;52.740;6.784;2023-02-28T06:23:44;4.40;99.90
59301;DHT22;45073;52.740;6.784;2023-02-28T06:26:10;4.30;99.90
59301;DHT22;45073;52.740;6.784;2023-02-28T06:28:36;4.40;99.90
59301;DHT22;45073;52.740;6.784;2023-02-28T06:31:10;4.40;99.90
59301;DHT22;45073;52.740;6.784;2023-02-28T06:33:37;4.40;99.90
59301;DHT22;45073;52.740;6.784;2023-02-28T06:36:04;4.40;99.90
59301;DHT22;45073;52.740;6.784;2023-02-28T06:38:30;4.30;99.90
59301;DHT22;45073;52.740;6.784;2023-02-28T06:40:57;4.30;99.90
59301;DHT22;45073;52.740;6.784;2023-02-28T06:43:23;4.30;99.90
59301;DHT22;45073;52.740;6.784;2023-02-28T06:45:48;4.40;99.90
59301;DHT22;45073;52.740;6.784;2023-02-28T06:48:14;4.40;99.90
59301;DHT22;45073;52.740;6.784;2023-02-28T06:50:40;4.40;99.90
59301;DHT22;45073;52.740;6.784;2023-02-28T06:53:06;4.40;99.90
59301;DHT22;45073;52.740;6.784;2023-02-28T06:55:31;4.40;99.90
59301;DHT22;45073;52.740;6.784;2023-02-28T06:57:57;4.40;99.90
59301;DHT22;45073;52.740;6.784;2023-02-28T07:00:23;4.40;99.90
59301;DHT22;45073;52.740;6.784;2023-02-28T07:02:50;4.40;99.90
59301;DHT22;45073;52.740;6.784;2023-02-28T07:05:15;4.50;99.90
59301;DHT22;45073;52.740;6.784;2023-02-28T07:07:41;4.50;99.90
59301;DHT22;45073;52.740;6.784;2023-02-28T07:10:12;4.50;99.90
59301;DHT22;45073;52.740;6.784;2023-02-28T07:12:40;4.50;99.90
59301;DHT22;45073;52.740;6.784;2023-02-28T07:15:06;4.60;99.90
59301;DHT22;45073;52.740;6.784;2023-02-28T07:17:31;4.60;99.90
59301;DHT22;45073;52.740;6.784;2023-02-28T07:19:57;4.70;99.90
59301;DHT22;45073;52.740;6.784;2023-02-28T07:22:23;4.70;99.90
59301;DHT22;45073;52.740;6.784;2023-02-28T07:24:48;4.70;99.90
59301;DHT22;45073;52.740;6.784;2023-02-28T07:27:14;4.70;99.90
59301;DHT22;45073;52.740;6.784;2023-02-28T07:29:49;4.70;99.90
59301;DHT22;45073;52.740;6.784;2023-02-28T07:32:15;4.70;99.90
59301;DHT22;45073;52.740;6.784;2023-02-28T07:34:41;4.70;99.90
59301;DHT22;45073;52.740;6.784;2023-02-28T07:37:06;4.70;99.90
59301;DHT22;45073;52.740;6.784;2023-02-28T07:39:32;4.70;99.90
59301;DHT22;45073;52.740;6.784;2023-02-28T07:41:58;4.80;99.90
59301;DHT22;45073;52.740;6.784;2023-02-28T07:44:25;4.80;99.90
59301;DHT22;45073;52.740;6.784;2023-02-28T07:46:51;4.80;99.90
59301;DHT22;45073;52.740;6.784;2023-02-28T07:49:18;4.80;99.90
59301;DHT22;45073;52.740;6.784;2023-02-28T07:51:43;4.80;99.90
59301;DHT22;45073;52.740;6.784;2023-02-28T07:54:09;4.70;99.90
59301;DHT22;45073;52.740;6.784;2023-02-28T07:56:53;4.70;99.90
59301;DHT22;45073;52.740;6.784;2023-02-28T07:59:19;4.70;99.90
59301;DHT22;45073;52.740;6.784;2023-02-28T08:01:44;4.60;99.90
59301;DHT22;45073;52.740;6.784;2023-02-28T08:04:10;4.60;99.90
59301;DHT22;45073;52.740;6.784;2023-02-28T08:06:36;4.60;99.90
59301;DHT22;45073;52.740;6.784;2023-02-28T08:09:01;4.60;99.90
59301;DHT22;45073;52.740;6.784;2023-02-28T08:11:27;4.60;99.90
59301;DHT22;45073;52.740;6.784;2023-02-28T08:13:54;4.70;99.90
59301;DHT22;45073;52.740;6.784;2023-02-28T08:16:20;4.70;99.90
59301;DHT22;45073;52.740;6.784;2023-02-28T08:18:51;4.80;99.90
59301;DHT22;45073;52.740;6.784;2023-02-28T08:21:18;4.90;99.90
59301;DHT22;45073;52.740;6.784;2023-02-28T08:23:46;5.00;99.90
59301;DHT22;45073;52.740;6.784;2023-02-28T08:26:12;5.10;99.90
59301;DHT22;45073;52.740;6.784;2023-02-28T08:28:38;5.10;99.90
59301;DHT22;45073;52.740;6.784;2023-02-28T08:31:13;5.20;99.90
59301;DHT22;45073;52.740;6.784;2023-02-28T08:33:40;5.20;99.20
59301;DHT22;45073;52.740;6.784;2023-02-28T08:36:07;5.30;99.10
59301;DHT22;45073;52.740;6.784;2023-02-28T08:38:33;5.30;98.70
59301;DHT22;45073;52.740;6.784;2023-02-28T08:41:08;5.40;98.70
59301;DHT22;45073;52.740;6.784;2023-02-28T08:43:35;5.40;97.60
59301;DHT22;45073;52.740;6.784;2023-02-28T08:46:00;5.50;97.50
59301;DHT22;45073;52.740;6.784;2023-02-28T08:48:28;5.50;97.00
59301;DHT22;45073;52.740;6.784;2023-02-28T08:51:06;5.50;97.00
59301;DHT22;45073;52.740;6.784;2023-02-28T08:53:32;5.50;97.50
59301;DHT22;45073;52.740;6.784;2023-02-28T08:55:59;5.60;97.90
59301;DHT22;45073;52.740;6.784;2023-02-28T08:58:26;5.70;97.50
59301;DHT22;45073;52.740;6.784;2023-02-28T09:00:51;5.70;97.30
59301;DHT22;45073;52.740;6.784;2023-02-28T09:03:17;5.80;97.00
59301;DHT22;45073;52.740;6.784;2023-02-28T09:05:57;5.80;96.90
59301;DHT22;45073;52.740;6.784;2023-02-28T09:08:24;5.90;96.20
59301;DHT22;45073;52.740;6.784;2023-02-28T09:10:50;5.90;96.20
59301;DHT22;45073;52.740;6.784;2023-02-28T09:13:16;6.00;95.80
59301;DHT22;45073;52.740;6.784;2023-02-28T09:15:42;6.10;94.90
59301;DHT22;45073;52.740;6.784;2023-02-28T09:18:08;6.10;93.30
59301;DHT22;45073;52.740;6.784;2023-02-28T09:20:34;6.20;92.10
59301;DHT22;45073;52.740;6.784;2023-02-28T09:22:59;6.20;91.30
59301;DHT22;45073;52.740;6.784;2023-02-28T09:25:25;6.20;90.30
59301;DHT22;45073;52.740;6.784;2023-02-28T09:27:51;6.30;90.30
59301;DHT22;45073;52.740;6.784;2023-02-28T09:30:17;6.40;89.70
59301;DHT22;45073;52.740;6.784;2023-02-28T09:32:42;6.40;86.90
59301;DHT22;45073;52.740;6.784;2023-02-28T09:35:24;6.40;81.60
59301;DHT22;45073;52.740;6.784;2023-02-28T09:37:51;6.40;82.90
59301;DHT22;45073;52.740;6.784;2023-02-28T09:40:22;6.50;82.90
59301;DHT22;45073;52.740;6.784;2023-02-28T09:42:51;6.50;81.10
59301;DHT22;45073;52.740;6.784;2023-02-28T09:45:24;6.50;80.00
59301;DHT22;45073;52.740;6.784;2023-02-28T09:47:54;6.50;78.90
59301;DHT22;45073;52.740;6.784;2023-02-28T09:50:33;6.60;79.80
59301;DHT22;45073;52.740;6.784;2023-02-28T09:53:16;6.70;79.40
59301;DHT22;45073;52.740;6.784;2023-02-28T09:55:49;6.70;77.80
59301;DHT22;45073;52.740;6.784;2023-02-28T09:58:47;6.70;77.60
59301;DHT22;45073;52.740;6.784;2023-02-28T10:04:32;6.70;76.10
59301;DHT22;45073;52.740;6.784;2023-02-28T10:07:04;6.70;74.40
59301;DHT22;45073;52.740;6.784;2023-02-28T10:09:33;6.80;75.10
59301;DHT22;45073;52.740;6.784;2023-02-28T10:12:05;6.90;74.70
59301;DHT22;45073;52.740;6.784;2023-02-28T10:14:33;6.90;74.60
59301;DHT22;45073;52.740;6.784;2023-02-28T10:17:04;7.00;73.20
59301;DHT22;45073;52.740;6.784;2023-02-28T10:19:47;7.00;73.10
59301;DHT22;45073;52.740;6.784;2023-02-28T10:23:05;7.00;73.00
59301;DHT22;45073;52.740;6.784;2023-02-28T10:25:26;7.10;72.50
59301;DHT22;45073;52.740;6.784;2023-02-28T10:28:12;7.10;71.20
59301;DHT22;45073;52.740;6.784;2023-02-28T10:30:47;7.10;71.20
59301;DHT22;45073;52.740;6.784;2023-02-28T10:33:31;7.20;71.70
59301;DHT22;45073;52.740;6.784;2023-02-28T10:35:58;7.30;70.80
59301;DHT22;45073;52.740;6.784;2023-02-28T10:38:35;7.40;71.40
59301;DHT22;45073;52.740;6.784;2023-02-28T10:41:07;7.50;71.10
59301;DHT22;45073;52.740;6.784;2023-02-28T10:43:34;7.60;70.00
59301;DHT22;45073;52.740;6.784;2023-02-28T10:48:38;7.70;69.40
59301;DHT22;45073;52.740;6.784;2023-02-28T10:51:07;8.00;70.50
59301;DHT22;45073;52.740;6.784;2023-02-28T10:53:52;8.20;70.40
59301;DHT22;45073;52.740;6.784;2023-02-28T10:56:24;8.40;66.50
59301;DHT22;45073;52.740;6.784;2023-02-28T10:59:00;8.50;68.60
59301;DHT22;45073;52.740;6.784;2023-02-28T11:01:37;8.60;67.50
59301;DHT22;45073;52.740;6.784;2023-02-28T11:04:20;8.80;68.20
59301;DHT22;45073;52.740;6.784;2023-02-28T11:07:02;9.00;68.50
59301;DHT22;45073;52.740;6.784;2023-02-28T11:09:39;9.20;68.10
59301;DHT22;45073;52.740;6.784;2023-02-28T11:12:08;9.40;66.90
59301;DHT22;45073;52.740;6.784;2023-02-28T11:14:49;9.50;66.50
59301;DHT22;45073;52.740;6.784;2023-02-28T11:17:24;9.60;65.50
59301;DHT22;45073;52.740;6.784;2023-02-28T11:19:54;9.70;65.50
59301;DHT22;45073;52.740;6.784;2023-02-28T11:22:24;9.90;65.10
59301;DHT22;45073;52.740;6.784;2023-02-28T11:24:56;10.10;65.30
59301;DHT22;45073;52.740;6.784;2023-02-28T11:29:58;10.30;64.80
59301;DHT22;45073;52.740;6.784;2023-02-28T11:32:28;10.40;64.30
59301;DHT22;45073;52.740;6.784;2023-02-28T11:37:37;10.60;62.80
59301;DHT22;45073;52.740;6.784;2023-02-28T11:40:15;10.70;63.90
59301;DHT22;45073;52.740;6.784;2023-02-28T11:42:57;10.90;62.80
59301;DHT22;45073;52.740;6.784;2023-02-28T11:48:27;11.20;63.30
59301;DHT22;45073;52.740;6.784;2023-02-28T11:51:21;11.40;62.70
59301;DHT22;45073;52.740;6.784;2023-02-28T11:56:33;11.60;61.20
59301;DHT22;45073;52.740;6.784;2023-02-28T12:02:22;11.90;60.20
59301;DHT22;45073;52.740;6.784;2023-02-28T12:05:08;12.10;59.60
59301;DHT22;45073;52.740;6.784;2023-02-28T12:10:26;12.20;59.50
59301;DHT22;45073;52.740;6.784;2023-02-28T12:13:05;12.20;59.40
59301;DHT22;45073;52.740;6.784;2023-02-28T12:26:51;13.10;56.90
59301;DHT22;45073;52.740;6.784;2023-02-28T12:29:28;13.10;57.50
59301;DHT22;45073;52.740;6.784;2023-02-28T12:34:37;13.50;56.60
59301;DHT22;45073;52.740;6.784;2023-02-28T12:37:09;13.70;55.50
59301;DHT22;45073;52.740;6.784;2023-02-28T12:39:41;13.80;55.10
59301;DHT22;45073;52.740;6.784;2023-02-28T12:42:19;14.00;54.50
59301;DHT22;45073;52.740;6.784;2023-02-28T12:44:49;14.00;53.80
59301;DHT22;45073;52.740;6.784;2023-02-28T12:47:18;14.30;54.30
59301;DHT22;45073;52.740;6.784;2023-02-28T12:49:51;14.60;53.60
59301;DHT22;45073;52.740;6.784;2023-02-28T12:52:29;14.80;52.90
59301;DHT22;45073;52.740;6.784;2023-02-28T13:04:00;16.30;50.30
59301;DHT22;45073;52.740;6.784;2023-02-28T13:09:22;17.30;45.60
59301;DHT22;45073;52.740;6.784;2023-02-28T13:11:53;17.50;46.50
59301;DHT22;45073;52.740;6.784;2023-02-28T13:14:37;18.10;47.20
59301;DHT22;45073;52.740;6.784;2023-02-28T13:17:20;19.60;47.00
59301;DHT22;45073;52.740;6.784;2023-02-28T13:19:57;21.40;43.10
59301;DHT22;45073;52.740;6.784;2023-02-28T13:22:49;22.50;42.30
59301;DHT22;45073;52.740;6.784;2023-02-28T13:28:00;25.10;39.40
59301;DHT22;45073;52.740;6.784;2023-02-28T13:38:48;27.40;33.70
59301;DHT22;45073;52.740;6.784;2023-02-28T13:44:14;28.20;31.60
59301;DHT22;45073;52.740;6.784;2023-02-28T13:49:31;28.70;31.50
59301;DHT22;45073;52.740;6.784;2023-02-28T13:54:56;29.10;30.50
59301;DHT22;45073;52.740;6.784;2023-02-28T14:05:27;29.50;29.30
59301;DHT22;45073;52.740;6.784;2023-02-28T14:07:57;29.40;29.80
59301;DHT22;45073;52.740;6.784;2023-02-28T14:10:29;29.10;29.50
59301;DHT22;45073;52.740;6.784;2023-02-28T14:13:00;28.50;28.70
59301;DHT22;45073;52.740;6.784;2023-02-28T14:18:01;27.80;29.40
59301;DHT22;45073;52.740;6.784;2023-02-28T14:20:32;27.90;29.70
59301;DHT22;45073;52.740;6.784;2023-02-28T14:23:20;28.00;28.60
59301;DHT22;45073;52.740;6.784;2023-02-28T14:31:18;27.10;28.70
59301;DHT22;45073;52.740;6.784;2023-02-28T14:34:12;26.50;29.80
59301;DHT22;45073;52.740;6.784;2023-02-28T14:36:42;26.50;29.60
59301;DHT22;45073;52.740;6.784;2023-02-28T14:39:15;26.80;29.70
59301;DHT22;45073;52.740;6.784;2023-02-28T14:41:43;27.10;28.80
59301;DHT22;45073;52.740;6.784;2023-02-28T14:44:19;26.70;28.60
59301;DHT22;45073;52.740;6.784;2023-02-28T14:46:48;26.10;28.30
59301;DHT22;45073;52.740;6.784;2023-02-28T14:49:29;25.40;28.80
59301;DHT22;45073;52.740;6.784;2023-02-28T14:52:26;25.20;28.50
59301;DHT22;45073;52.740;6.784;2023-02-28T14:57:26;25.40;29.20
59301;DHT22;45073;52.740;6.784;2023-02-28T15:00:23;25.50;29.40
59301;DHT22;45073;52.740;6.784;2023-02-28T15:02:49;25.80;29.40
59301;DHT22;45073;52.740;6.784;2023-02-28T15:07:44;26.90;29.10
59301;DHT22;45073;52.740;6.784;2023-02-28T15:10:26;27.70;28.70
59301;DHT22;45073;52.740;6.784;2023-02-28T15:12:57;28.70;28.70
59301;DHT22;45073;52.740;6.784;2023-02-28T15:20:51;30.10;28.00
59301;DHT22;45073;52.740;6.784;2023-02-28T15:23:17;30.60;28.20
59301;DHT22;45073;52.740;6.784;2023-02-28T15:25:44;31.00;27.90
59301;DHT22;45073;52.740;6.784;2023-02-28T15:28:15;31.00;27.50
59301;DHT22;45073;52.740;6.784;2023-02-28T15:30:55;31.30;27.50
59301;DHT22;45073;52.740;6.784;2023-02-28T15:33:23;31.30;27.00
59301;DHT22;45073;52.740;6.784;2023-02-28T15:35:50;31.30;27.00
59301;DHT22;45073;52.740;6.784;2023-02-28T15:38:18;31.50;26.90
59301;DHT22;45073;52.740;6.784;2023-02-28T15:40:52;31.60;27.10
59301;DHT22;45073;52.740;6.784;2023-02-28T15:43:30;31.30;26.60
59301;DHT22;45073;52.740;6.784;2023-02-28T15:46:05;31.10;27.30
59301;DHT22;45073;52.740;6.784;2023-02-28T15:48:38;30.80;26.80
59301;DHT22;45073;52.740;6.784;2023-02-28T15:51:09;30.60;27.00
59301;DHT22;45073;52.740;6.784;2023-02-28T15:56:28;30.40;27.00
59301;DHT22;45073;52.740;6.784;2023-02-28T15:59:00;30.20;27.00
59301;DHT22;45073;52.740;6.784;2023-02-28T16:01:32;30.10;26.60
59301;DHT22;45073;52.740;6.784;2023-02-28T16:04:04;29.80;26.90
59301;DHT22;45073;52.740;6.784;2023-02-28T16:07:00;29.60;26.60
59301;DHT22;45073;52.740;6.784;2023-02-28T16:09:26;29.40;26.70
59301;DHT22;45073;52.740;6.784;2023-02-28T16:11:55;29.20;26.70
59301;DHT22;45073;52.740;6.784;2023-02-28T16:14:24;28.70;26.60
59301;DHT22;45073;52.740;6.784;2023-02-28T16:16:52;28.50;26.70
59301;DHT22;45073;52.740;6.784;2023-02-28T16:19:19;27.70;26.90
59301;DHT22;45073;52.740;6.784;2023-02-28T16:21:46;26.60;27.90
59301;DHT22;45073;52.740;6.784;2023-02-28T16:24:12;25.30;27.90
59301;DHT22;45073;52.740;6.784;2023-02-28T16:26:40;24.40;28.60
59301;DHT22;45073;52.740;6.784;2023-02-28T16:29:06;23.30;29.30
59301;DHT22;45073;52.740;6.784;2023-02-28T16:31:37;22.50;29.90
59301;DHT22;45073;52.740;6.784;2023-02-28T16:34:03;21.80;30.60
59301;DHT22;45073;52.740;6.784;2023-02-28T16:36:29;20.90;31.40
59301;DHT22;45073;52.740;6.784;2023-02-28T16:38:55;20.40;32.10
59301;DHT22;45073;52.740;6.784;2023-02-28T16:41:23;19.80;32.60
59301;DHT22;45073;52.740;6.784;2023-02-28T16:43:52;19.30;33.20
59301;DHT22;45073;52.740;6.784;2023-02-28T16:46:19;18.70;34.10
59301;DHT22;45073;52.740;6.784;2023-02-28T16:48:46;18.30;34.60
59301;DHT22;45073;52.740;6.784;2023-02-28T16:51:15;17.70;35.30
59301;DHT22;45073;52.740;6.784;2023-02-28T16:53:41;17.30;36.20
59301;DHT22;45073;52.740;6.784;2023-02-28T16:56:17;16.90;36.50
59301;DHT22;45073;52.740;6.784;2023-02-28T16:58:44;16.60;37.30
59301;DHT22;45073;52.740;6.784;2023-02-28T17:01:10;16.10;37.80
59301;DHT22;45073;52.740;6.784;2023-02-28T17:03:36;15.70;38.50
59301;DHT22;45073;52.740;6.784;2023-02-28T17:06:03;15.30;38.80
59301;DHT22;45073;52.740;6.784;2023-02-28T17:08:30;15.10;39.10
59301;DHT22;45073;52.740;6.784;2023-02-28T17:10:57;14.70;39.70
59301;DHT22;45073;52.740;6.784;2023-02-28T17:13:23;14.40;41.10
59301;DHT22;45073;52.740;6.784;2023-02-28T17:15:48;14.10;40.70
59301;DHT22;45073;52.740;6.784;2023-02-28T17:18:16;13.80;41.20
59301;DHT22;45073;52.740;6.784;2023-02-28T17:20:44;13.40;41.50
59301;DHT22;45073;52.740;6.784;2023-02-28T17:23:10;13.00;42.00
59301;DHT22;45073;52.740;6.784;2023-02-28T17:25:36;12.80;42.70
59301;DHT22;45073;52.740;6.784;2023-02-28T17:28:02;12.60;43.20
59301;DHT22;45073;52.740;6.784;2023-02-28T17:30:27;12.30;43.20
59301;DHT22;45073;52.740;6.784;2023-02-28T17:32:55;12.00;43.60
59301;DHT22;45073;52.740;6.784;2023-02-28T17:35:21;11.90;44.40
59301;DHT22;45073;52.740;6.784;2023-02-28T17:37:47;11.60;44.20
59301;DHT22;45073;52.740;6.784;2023-02-28T17:40:20;11.60;44.90
59301;DHT22;45073;52.740;6.784;2023-02-28T17:42:47;11.30;44.80
59301;DHT22;45073;52.740;6.784;2023-02-28T17:45:14;11.10;44.90
59301;DHT22;45073;52.740;6.784;2023-02-28T17:47:40;10.90;45.20
59301;DHT22;45073;52.740;6.784;2023-02-28T17:50:14;10.70;45.60
59301;DHT22;45073;52.740;6.784;2023-02-28T17:52:39;10.50;45.90
59301;DHT22;45073;52.740;6.784;2023-02-28T17:55:05;10.30;46.10
59301;DHT22;45073;52.740;6.784;2023-02-28T17:57:31;10.10;46.50
59301;DHT22;45073;52.740;6.784;2023-02-28T17:59:57;9.90;46.70
59301;DHT22;45073;52.740;6.784;2023-02-28T18:02:22;9.80;46.90
59301;DHT22;45073;52.740;6.784;2023-02-28T18:04:48;9.80;47.80
59301;DHT22;45073;52.740;6.784;2023-02-28T18:07:13;9.70;47.50
59301;DHT22;45073;52.740;6.784;2023-02-28T18:09:40;9.50;48.10
59301;DHT22;45073;52.740;6.784;2023-02-28T18:12:05;9.40;48.30